Etusivu
METAR-TAF:

METAR-TAF

Lentoasemat :

Huntsville, Alabama, Yhdysvallat

Leveyspiiri: 34-51-41N, Pituuspiiri: 086-33-26W, korkeus merenpinnasta: 230 m

Tämänhetkinen sää

Tämä raportti tehtiin 25 minuuttia sitten, kello 15.15 UTC
Tuuli 4 kn etelästä/kaakosta
Lämpötila 9°C
Kosteus 100%
Ilmanpaine 1020 hPa
Näkyvyys: 16.1 km
Hajanaisia pilviä 6500 ft:n korkeudessa
Pilvistä 8000 ft:n korkeudessa
heikkoa sadetta

METAR: KMDQ 261515Z AUTO 15004KT 10SM -RA SCT065 OVC080 09/09 A3013 RMK A02 T00940089

Aika: 09:40 (15:40 UTC)


TAF: puuttuu

Säähavainnot ja -ennusteet yli 4000 lentoasemalta (METAR- ja TAF-raportit).

Käytössä olevat sääasemat on merkitty karttaan keltaisilla ja punaisilla pisteillä.

Aseta hiiri pisteen päälle nähdäksesi sääaseman nimen.

Klikkaa sitten nähdäksesi säähavainnot ja -ennusteet.

Kartan vaihtaminen: klikkaa mustalla rastilla varustettuja vihreitä pisteitä, niin voit zoomata sisään; viivalla varustettua vihreää pistettä, niin voit zoomata ulos tai vihreitä nuolia, niin pääset viereisille kartoille.


METAR-TAF: